createdAt,value
2022-08-04T00:01:12.339Z,2.50
2022-08-04T00:03:52.640Z,3.10
2022-08-04T00:06:41.383Z,2.90
2022-08-04T00:09:30.666Z,3.22
2022-08-04T00:12:02.449Z,2.97
2022-08-04T00:14:35.904Z,2.97
2022-08-04T00:17:08.111Z,2.80
2022-08-04T00:19:47.387Z,3.10
2022-08-04T00:22:20.160Z,2.85
2022-08-04T00:24:48.164Z,2.95
2022-08-04T00:27:16.569Z,3.20
2022-08-04T00:29:43.823Z,3.10
2022-08-04T00:32:12.508Z,3.50
2022-08-04T00:34:40.086Z,3.10
2022-08-04T00:37:07.569Z,3.47
2022-08-04T00:39:34.831Z,3.25
2022-08-04T00:42:36.062Z,3.40
2022-08-04T00:46:12.521Z,3.30
2022-08-04T00:49:07.170Z,3.00
2022-08-04T00:52:32.341Z,3.17
2022-08-04T00:54:50.532Z,3.20
2022-08-04T00:57:48.330Z,3.40
2022-08-04T01:00:16.801Z,3.35
2022-08-04T01:03:12.413Z,3.42
2022-08-04T01:06:00.587Z,3.05
2022-08-04T01:08:34.903Z,3.10
2022-08-04T01:11:57.124Z,3.40
2022-08-04T01:14:40.517Z,2.85
2022-08-04T01:20:03.965Z,3.05
2022-08-04T01:22:34.144Z,2.90
2022-08-04T01:25:32.542Z,3.22
2022-08-04T01:28:55.209Z,3.58
2022-08-04T01:31:52.935Z,3.75
2022-08-04T01:34:22.862Z,3.22
2022-08-04T01:37:11.038Z,3.10
2022-08-04T01:40:01.120Z,3.03
2022-08-04T01:42:32.653Z,3.55
2022-08-04T01:45:09.231Z,3.33
2022-08-04T01:47:40.883Z,3.60
2022-08-04T01:50:13.910Z,3.10
2022-08-04T01:52:47.592Z,3.33
2022-08-04T01:55:18.143Z,3.40
2022-08-04T01:57:48.421Z,3.30
2022-08-04T02:00:22.380Z,3.30
2022-08-04T02:02:51.278Z,3.80
2022-08-04T02:05:21.662Z,3.45
2022-08-04T02:08:35.443Z,3.40
2022-08-04T02:11:15.746Z,3.40
2022-08-04T02:14:45.556Z,3.58
2022-08-04T02:17:46.122Z,3.45
2022-08-04T02:20:23.133Z,3.40
2022-08-04T02:23:05.086Z,3.20
2022-08-04T02:26:01.411Z,3.20
2022-08-04T02:28:39.205Z,3.38
2022-08-04T02:31:15.715Z,3.50
2022-08-04T02:33:58.714Z,3.80
2022-08-04T02:36:36.138Z,3.50
2022-08-04T02:39:06.783Z,3.60
2022-08-04T02:41:35.409Z,4.10
2022-08-04T02:44:08.914Z,3.75
2022-08-04T02:46:37.857Z,3.40
2022-08-04T02:49:09.534Z,4.05
2022-08-04T02:51:47.444Z,3.83
2022-08-04T02:54:30.510Z,3.45
2022-08-04T02:57:02.133Z,3.63
2022-08-04T02:59:50.058Z,4.22
2022-08-04T03:02:47.583Z,3.67
2022-08-04T03:05:21.501Z,4.00
2022-08-04T03:08:00.249Z,3.65
2022-08-04T03:11:32.330Z,4.30
2022-08-04T03:14:46.084Z,3.90
2022-08-04T03:17:32.340Z,3.97
2022-08-04T03:20:29.451Z,3.88
2022-08-04T03:23:13.828Z,3.70
2022-08-04T03:25:57.453Z,3.90
2022-08-04T03:28:45.756Z,4.07
2022-08-04T03:31:40.598Z,3.72
2022-08-04T03:34:52.061Z,3.85
2022-08-04T03:37:49.410Z,3.63
2022-08-04T03:40:47.790Z,3.78
2022-08-04T03:43:59.979Z,3.83
2022-08-04T03:47:04.372Z,3.70
2022-08-04T03:49:59.161Z,3.70
2022-08-04T03:53:21.252Z,3.58
2022-08-04T03:56:26.383Z,3.63
2022-08-04T03:59:24.662Z,3.72
2022-08-04T04:02:10.756Z,4.00
2022-08-04T04:04:49.602Z,3.30
2022-08-04T04:08:16.741Z,3.20
2022-08-04T04:11:00.166Z,3.80
2022-08-04T04:14:10.054Z,3.72
2022-08-04T04:17:05.322Z,4.30
2022-08-04T04:22:35.407Z,3.72
2022-08-04T04:25:30.470Z,3.30
2022-08-04T04:28:45.221Z,3.50
2022-08-04T04:31:42.396Z,3.53
2022-08-04T04:34:37.297Z,3.53
2022-08-04T04:37:22.375Z,3.80
2022-08-04T04:39:55.476Z,3.47
2022-08-04T04:42:40.395Z,3.72
2022-08-04T04:48:48.568Z,3.60
2022-08-04T04:51:51.791Z,3.80
2022-08-04T04:55:10.272Z,3.72
2022-08-04T04:57:53.169Z,3.38
2022-08-04T05:00:30.263Z,3.78
2022-08-04T05:03:57.855Z,3.38
2022-08-04T05:07:05.815Z,2.75
2022-08-04T05:09:54.888Z,3.65
2022-08-04T05:14:31.227Z,3.25
2022-08-04T05:15:31.766Z,2.97
2022-08-04T05:18:03.204Z,3.08
2022-08-04T05:20:40.775Z,3.40
2022-08-04T05:23:19.556Z,3.00
2022-08-04T05:26:10.508Z,3.35
2022-08-04T05:28:43.012Z,3.60
2022-08-04T05:31:21.319Z,3.22
2022-08-04T05:34:03.217Z,3.28
2022-08-04T05:36:53.361Z,2.60
2022-08-04T05:39:36.047Z,2.47
2022-08-04T05:42:07.364Z,2.80
2022-08-04T05:44:36.767Z,3.50
2022-08-04T05:47:06.312Z,2.67
2022-08-04T05:49:35.250Z,2.70
2022-08-04T05:52:04.610Z,2.58
2022-08-04T05:54:34.940Z,2.97
2022-08-04T05:57:08.541Z,2.72
2022-08-04T05:59:40.765Z,2.67
2022-08-04T06:02:09.849Z,2.70
2022-08-04T06:04:45.680Z,2.63
2022-08-04T06:07:14.286Z,2.35
2022-08-04T06:09:42.178Z,3.10
2022-08-04T06:12:19.789Z,3.08
2022-08-04T06:14:54.060Z,2.42
2022-08-04T06:18:32.834Z,2.38
2022-08-04T06:20:34.776Z,2.33
2022-08-04T06:23:07.818Z,2.58
2022-08-04T06:25:47.533Z,2.55
2022-08-04T06:28:17.614Z,2.72
2022-08-04T06:30:48.070Z,2.65
2022-08-04T06:33:27.774Z,3.20
2022-08-04T06:35:56.797Z,2.60
2022-08-04T06:38:26.089Z,2.60
2022-08-04T06:40:55.432Z,2.42
2022-08-04T06:43:23.545Z,2.42
2022-08-04T06:45:56.109Z,2.53
2022-08-04T06:48:24.742Z,2.33
2022-08-04T06:51:30.525Z,2.45
2022-08-04T06:53:49.793Z,2.72
2022-08-04T06:56:19.700Z,2.38
2022-08-04T06:58:48.394Z,2.30
2022-08-04T07:01:19.441Z,2.90
2022-08-04T07:03:50.592Z,3.10
2022-08-04T07:06:19.025Z,2.30
2022-08-04T07:08:46.500Z,2.70
2022-08-04T07:11:14.573Z,2.50
2022-08-04T07:13:45.250Z,2.47
2022-08-04T07:16:18.227Z,2.17
2022-08-04T07:18:45.394Z,2.10
2022-08-04T07:21:22.383Z,2.45
2022-08-04T07:23:50.998Z,2.65
2022-08-04T07:26:19.187Z,2.50
2022-08-04T07:28:47.970Z,2.40
2022-08-04T07:31:33.363Z,2.45
2022-08-04T07:34:16.512Z,2.20
2022-08-04T07:36:51.820Z,2.50
2022-08-04T07:39:28.095Z,2.28
2022-08-04T07:42:01.790Z,2.50
2022-08-04T07:44:32.219Z,2.40
2022-08-04T07:47:01.565Z,2.30
2022-08-04T07:49:54.965Z,2.05
2022-08-04T07:52:17.139Z,2.20
2022-08-04T07:54:44.912Z,2.15
2022-08-04T07:57:20.991Z,2.47
2022-08-04T07:59:58.731Z,2.53
2022-08-04T08:02:26.742Z,2.50
2022-08-04T08:04:54.258Z,2.35
2022-08-04T08:07:21.526Z,2.45
2022-08-04T08:09:48.888Z,2.20
2022-08-04T08:12:36.465Z,2.70
2022-08-04T08:15:05.414Z,2.30
2022-08-04T08:17:58.165Z,2.33
2022-08-04T08:20:29.220Z,2.40
2022-08-04T08:22:58.213Z,2.40
2022-08-04T08:25:25.247Z,2.42
2022-08-04T08:27:55.985Z,2.05
2022-08-04T08:30:25.184Z,2.13
2022-08-04T08:33:08.219Z,2.15
2022-08-04T08:35:54.814Z,2.05
2022-08-04T08:38:40.715Z,2.10
2022-08-04T08:41:32.433Z,2.15
2022-08-04T08:44:47.870Z,1.88
2022-08-04T08:47:29.933Z,1.83
2022-08-04T08:50:31.990Z,2.05
2022-08-04T08:53:17.149Z,1.90
2022-08-04T08:56:33.607Z,2.00
2022-08-04T08:59:34.660Z,1.67
2022-08-04T09:02:34.329Z,2.00
2022-08-04T09:05:32.966Z,1.77
2022-08-04T09:08:28.695Z,2.00
2022-08-04T09:11:18.899Z,1.92
2022-08-04T09:14:16.247Z,1.83
2022-08-04T09:16:54.347Z,1.60
2022-08-04T09:19:39.761Z,1.85
2022-08-04T09:22:37.538Z,1.58
2022-08-04T09:25:30.444Z,1.40
2022-08-04T09:28:09.168Z,1.58
2022-08-04T09:31:07.924Z,1.80
2022-08-04T09:33:58.873Z,1.67
2022-08-04T09:36:51.466Z,1.48
2022-08-04T09:39:28.702Z,1.60
2022-08-04T09:42:23.928Z,1.80
2022-08-04T09:45:42.597Z,1.70
2022-08-04T09:48:28.379Z,1.60
2022-08-04T09:50:59.798Z,1.27
2022-08-04T09:54:05.370Z,1.63
2022-08-04T09:56:53.338Z,1.50
2022-08-04T09:59:42.889Z,1.52
2022-08-04T10:02:14.024Z,1.27
2022-08-04T10:04:43.958Z,1.65
2022-08-04T10:07:31.826Z,1.63
2022-08-04T10:10:39.195Z,1.33
2022-08-04T10:13:44.319Z,1.60
2022-08-04T10:16:37.697Z,1.42
2022-08-04T10:19:26.295Z,1.63
2022-08-04T10:22:28.104Z,1.50
2022-08-04T10:28:05.207Z,1.45
2022-08-04T10:30:36.956Z,1.40
2022-08-04T10:33:23.238Z,1.55
2022-08-04T10:35:57.486Z,1.50
2022-08-04T10:38:40.768Z,1.63
2022-08-04T10:41:39.485Z,1.80
2022-08-04T10:44:27.659Z,1.90
2022-08-04T10:47:13.890Z,1.50
2022-08-04T10:49:48.472Z,1.60
2022-08-04T10:52:35.802Z,2.10
2022-08-04T10:55:18.657Z,1.80
2022-08-04T10:58:00.963Z,1.33
2022-08-04T11:00:31.402Z,1.65
2022-08-04T11:03:08.807Z,1.55
2022-08-04T11:05:49.157Z,1.70
2022-08-04T11:08:41.071Z,1.50
2022-08-04T11:12:00.752Z,1.30
2022-08-04T11:14:39.746Z,1.60
2022-08-04T11:17:11.382Z,1.52
2022-08-04T11:20:33.058Z,1.77
2022-08-04T11:23:04.193Z,1.65
2022-08-04T11:25:40.404Z,1.48
2022-08-04T11:28:41.716Z,1.70
2022-08-04T11:31:19.293Z,1.65
2022-08-04T11:34:23.777Z,1.70
2022-08-04T11:40:21.931Z,1.40
2022-08-04T11:43:00.124Z,1.55
2022-08-04T11:45:37.578Z,1.95
2022-08-04T11:48:32.335Z,1.60
2022-08-04T11:51:06.814Z,1.65
2022-08-04T11:53:38.502Z,1.98
2022-08-04T11:56:13.409Z,1.67
2022-08-04T11:58:50.225Z,1.67
2022-08-04T12:01:44.981Z,1.50
2022-08-04T12:04:28.538Z,1.70
2022-08-04T12:07:41.964Z,1.70
2022-08-04T12:10:41.508Z,1.83
2022-08-04T12:13:41.990Z,1.40
2022-08-04T12:16:30.458Z,1.67
2022-08-04T12:20:03.132Z,1.30
2022-08-04T12:22:40.894Z,1.70
2022-08-04T12:25:18.070Z,1.50
2022-08-04T12:28:06.307Z,1.50
2022-08-04T12:30:57.866Z,1.42
2022-08-04T12:34:05.039Z,1.60
2022-08-04T12:36:39.143Z,1.50
2022-08-04T12:39:27.778Z,1.77
2022-08-04T12:42:23.326Z,1.52
2022-08-04T12:44:54.345Z,1.70
2022-08-04T12:47:29.693Z,1.73
2022-08-04T12:50:05.832Z,1.73
2022-08-04T12:53:02.035Z,1.80
2022-08-04T12:55:34.077Z,1.65
2022-08-04T12:58:13.173Z,1.70
2022-08-04T13:00:41.980Z,1.50
2022-08-04T13:03:14.835Z,1.77
2022-08-04T13:05:43.588Z,1.83
2022-08-04T13:08:13.396Z,1.70
2022-08-04T13:10:47.168Z,1.50
2022-08-04T13:13:22.029Z,2.90
2022-08-04T13:16:00.238Z,1.63
2022-08-04T13:18:32.383Z,2.00
2022-08-04T13:21:49.796Z,1.40
2022-08-04T13:24:21.857Z,1.70
2022-08-04T13:27:09.164Z,1.63
2022-08-04T13:30:00.006Z,1.58
2022-08-04T13:32:31.489Z,1.75
2022-08-04T13:35:02.198Z,1.92
2022-08-04T13:37:36.810Z,1.50
2022-08-04T13:40:10.475Z,1.70
2022-08-04T13:45:09.849Z,1.90
2022-08-04T13:47:40.802Z,1.85
2022-08-04T13:50:20.751Z,1.95
2022-08-04T13:52:52.849Z,1.85
2022-08-04T13:55:31.558Z,1.73
2022-08-04T13:58:21.419Z,2.20
2022-08-04T14:01:02.736Z,1.77
2022-08-04T14:03:53.590Z,1.85
2022-08-04T14:06:44.915Z,1.95
2022-08-04T14:09:19.655Z,2.00
2022-08-04T14:12:09.303Z,1.75
2022-08-04T14:14:53.806Z,2.03
2022-08-04T14:17:30.223Z,2.00
2022-08-04T14:20:01.041Z,2.10
2022-08-04T14:22:28.102Z,1.70
2022-08-04T14:25:21.304Z,1.80
2022-08-04T14:27:53.776Z,2.05
2022-08-04T14:30:37.354Z,2.05
2022-08-04T14:34:04.532Z,1.90
2022-08-04T14:36:03.900Z,1.80
2022-08-04T14:39:00.256Z,1.60
2022-08-04T14:41:43.562Z,1.80
2022-08-04T14:44:10.660Z,2.03
2022-08-04T14:46:59.006Z,1.70
2022-08-04T14:49:26.846Z,2.00
2022-08-04T14:51:59.983Z,1.65
2022-08-04T14:54:32.808Z,1.77
2022-08-04T14:57:07.728Z,1.80
2022-08-04T15:00:00.484Z,1.80
2022-08-04T15:02:30.259Z,2.05
2022-08-04T15:04:59.102Z,1.80
2022-08-04T15:07:27.009Z,1.92
2022-08-04T15:09:54.630Z,2.00
2022-08-04T15:12:22.849Z,2.13
2022-08-04T15:14:50.522Z,1.83
2022-08-04T15:17:29.980Z,2.20
2022-08-04T15:19:58.375Z,1.90
2022-08-04T15:22:25.599Z,2.00
2022-08-04T15:24:55.657Z,1.95
2022-08-04T15:27:31.924Z,1.90
2022-08-04T15:30:07.600Z,2.03
2022-08-04T15:32:51.806Z,1.80
2022-08-04T15:35:35.116Z,2.03
2022-08-04T15:38:30.878Z,2.10
2022-08-04T15:41:10.174Z,2.05
2022-08-04T15:44:05.545Z,1.85
2022-08-04T15:47:10.394Z,1.90
2022-08-04T15:49:39.569Z,1.90
2022-08-04T15:52:16.718Z,1.80
2022-08-04T15:54:52.813Z,1.70
2022-08-04T15:58:03.433Z,1.85
2022-08-04T16:00:54.178Z,2.28
2022-08-04T16:03:58.180Z,2.20
2022-08-04T16:06:23.700Z,1.90
2022-08-04T16:09:02.613Z,1.95
2022-08-04T16:11:32.195Z,1.70
2022-08-04T16:13:59.384Z,1.83
2022-08-04T16:16:38.601Z,1.60
2022-08-04T16:19:19.023Z,1.90
2022-08-04T16:21:52.888Z,1.90
2022-08-04T16:24:21.951Z,2.20
2022-08-04T16:26:56.892Z,1.70
2022-08-04T16:29:24.143Z,1.50
2022-08-04T16:32:18.025Z,1.77
2022-08-04T16:34:56.735Z,1.80
2022-08-04T16:37:37.598Z,1.90
2022-08-04T16:40:37.171Z,1.70
2022-08-04T16:43:14.487Z,1.80
2022-08-04T16:45:44.893Z,1.80
2022-08-04T16:48:14.032Z,1.77
2022-08-04T16:50:56.367Z,1.75
2022-08-04T16:53:53.433Z,1.60
2022-08-04T16:56:18.927Z,1.80
2022-08-04T16:58:53.026Z,1.80
2022-08-04T17:01:34.130Z,1.63
2022-08-04T17:04:06.993Z,1.70
2022-08-04T17:06:40.865Z,1.93
2022-08-04T17:09:16.381Z,1.77
2022-08-04T17:11:45.833Z,1.80
2022-08-04T17:14:13.258Z,1.70
2022-08-04T17:16:43.292Z,2.00
2022-08-04T17:19:24.219Z,3.08
2022-08-04T17:22:02.928Z,1.80
2022-08-04T17:24:38.524Z,1.80
2022-08-04T17:28:10.072Z,1.95
2022-08-04T17:29:55.036Z,2.22
2022-08-04T17:32:23.376Z,2.00
2022-08-04T17:34:53.912Z,1.60
2022-08-04T17:37:39.249Z,1.80
2022-08-04T17:40:13.349Z,1.70
2022-08-04T17:42:41.984Z,1.88
2022-08-04T17:48:00.073Z,1.60
2022-08-04T17:50:35.710Z,1.67
2022-08-04T17:53:11.562Z,1.80
2022-08-04T17:55:49.536Z,1.80
2022-08-04T17:58:26.909Z,1.90
2022-08-04T18:01:23.531Z,1.70
2022-08-04T18:03:51.553Z,1.85
2022-08-04T18:06:20.562Z,1.70
2022-08-04T18:08:59.382Z,1.65
2022-08-04T18:11:55.722Z,1.70
2022-08-04T18:14:28.663Z,1.52
2022-08-04T18:16:56.451Z,1.83
2022-08-04T18:19:23.751Z,1.73
2022-08-04T18:21:59.801Z,1.70
2022-08-04T18:24:35.095Z,1.65
2022-08-04T18:27:23.781Z,1.67
2022-08-04T18:30:32.572Z,2.05
2022-08-04T18:33:04.247Z,1.85
2022-08-04T18:36:31.521Z,1.90
2022-08-04T18:38:22.449Z,1.42
2022-08-04T18:40:54.218Z,1.55
2022-08-04T18:43:28.280Z,1.40
2022-08-04T18:46:00.780Z,1.58
2022-08-04T18:48:36.705Z,2.00
2022-08-04T18:51:22.894Z,1.67
2022-08-04T18:53:58.544Z,1.70
2022-08-04T18:56:32.896Z,1.60
2022-08-04T18:59:10.158Z,1.50
2022-08-04T19:02:09.327Z,1.83
2022-08-04T19:04:34.149Z,1.58
2022-08-04T19:07:28.772Z,1.60
2022-08-04T19:09:58.054Z,1.80
2022-08-04T19:12:28.508Z,1.50
2022-08-04T19:15:08.678Z,1.80
2022-08-04T19:17:54.168Z,1.85
2022-08-04T19:20:26.966Z,1.70
2022-08-04T19:24:26.858Z,1.65
2022-08-04T19:25:59.413Z,1.60
2022-08-04T19:28:34.254Z,1.50
2022-08-04T19:31:05.531Z,1.70
2022-08-04T19:33:58.951Z,1.58
2022-08-04T19:36:20.662Z,1.90
2022-08-04T19:38:59.421Z,1.73
2022-08-04T19:41:29.604Z,1.63
2022-08-04T19:43:58.441Z,1.80
2022-08-04T19:46:27.849Z,2.10
2022-08-04T19:48:59.730Z,1.60
2022-08-04T19:51:30.447Z,1.60
2022-08-04T19:54:03.853Z,1.95
2022-08-04T19:56:39.960Z,1.75
2022-08-04T19:59:10.333Z,1.93
2022-08-04T20:01:44.935Z,1.98
2022-08-04T20:04:14.248Z,1.83
2022-08-04T20:06:41.855Z,1.70
2022-08-04T20:09:25.734Z,2.13
2022-08-04T20:11:58.137Z,1.60
2022-08-04T20:14:32.687Z,1.65
2022-08-04T20:17:10.239Z,1.60
2022-08-04T20:19:38.894Z,1.80
2022-08-04T20:22:43.932Z,1.67
2022-08-04T20:25:00.901Z,1.60
2022-08-04T20:27:59.285Z,1.70
2022-08-04T20:30:28.927Z,1.90
2022-08-04T20:32:56.373Z,1.85
2022-08-04T20:35:25.901Z,1.70
2022-08-04T20:38:00.323Z,1.70
2022-08-04T20:42:57.313Z,1.70
2022-08-04T20:45:55.580Z,1.60
2022-08-04T20:48:12.340Z,1.98
2022-08-04T20:50:39.818Z,1.67
2022-08-04T20:53:16.418Z,1.60
2022-08-04T20:55:55.116Z,1.80
2022-08-04T21:01:11.899Z,1.55
2022-08-04T21:04:00.789Z,1.77
2022-08-04T21:06:27.952Z,1.90
2022-08-04T21:11:43.451Z,1.50
2022-08-04T21:14:14.227Z,1.83
2022-08-04T21:16:55.088Z,1.58
2022-08-04T21:22:11.213Z,1.58
2022-08-04T21:24:38.301Z,2.10
2022-08-04T21:27:07.107Z,1.70
2022-08-04T21:29:36.959Z,1.67
2022-08-04T21:32:07.643Z,1.90
2022-08-04T21:34:39.342Z,1.92
2022-08-04T21:37:10.200Z,2.15
2022-08-04T21:39:43.907Z,1.80
2022-08-04T21:42:29.445Z,1.98
2022-08-04T21:44:58.189Z,1.73
2022-08-04T21:47:25.171Z,2.08
2022-08-04T21:49:56.808Z,1.85
2022-08-04T21:52:25.290Z,1.90
2022-08-04T21:54:54.445Z,1.67
2022-08-04T21:57:25.291Z,1.60
2022-08-04T21:59:52.963Z,1.80
2022-08-04T22:02:19.954Z,1.90
2022-08-04T22:04:48.433Z,1.90
2022-08-04T22:07:16.484Z,1.70
2022-08-04T22:09:56.213Z,2.08
2022-08-04T22:12:29.862Z,1.95
2022-08-04T22:14:59.694Z,2.03
2022-08-04T22:17:29.442Z,1.92
2022-08-04T22:20:04.603Z,2.05
2022-08-04T22:22:36.209Z,1.60
2022-08-04T22:28:01.587Z,1.85
2022-08-04T22:30:36.747Z,2.00
2022-08-04T22:33:07.868Z,2.10
2022-08-04T22:35:43.620Z,2.20
2022-08-04T22:38:23.954Z,2.20
2022-08-04T22:40:57.689Z,2.22
2022-08-04T22:43:33.290Z,2.03
2022-08-04T22:46:05.265Z,1.88
2022-08-04T22:48:38.944Z,2.17
2022-08-04T22:51:07.734Z,1.98
2022-08-04T22:53:36.291Z,1.85
2022-08-04T22:56:09.602Z,2.03
2022-08-04T22:58:51.060Z,2.20
2022-08-04T23:01:19.066Z,2.30
2022-08-04T23:03:51.219Z,2.28
2022-08-04T23:06:25.266Z,2.00
2022-08-04T23:08:52.813Z,2.28
2022-08-04T23:11:20.418Z,2.83
2022-08-04T23:13:49.031Z,2.10
2022-08-04T23:16:17.116Z,2.25
2022-08-04T23:18:48.147Z,2.10
2022-08-04T23:21:15.283Z,2.03
2022-08-04T23:23:45.575Z,2.17
2022-08-04T23:26:27.992Z,1.83
2022-08-04T23:28:56.481Z,2.10
2022-08-04T23:31:40.473Z,2.17
2022-08-04T23:34:09.120Z,2.00
2022-08-04T23:36:39.460Z,2.30
2022-08-04T23:39:07.279Z,2.40
2022-08-04T23:41:53.740Z,2.10
2022-08-04T23:44:25.232Z,2.47
2022-08-04T23:47:04.694Z,2.20
2022-08-04T23:49:44.108Z,2.35
2022-08-04T23:52:28.107Z,2.50
2022-08-04T23:55:02.276Z,2.63
2022-08-04T23:58:02.136Z,2.20
